ENAL/AES METAR and TAF weather

Enter ICAO airport designator
Station Type Date Time Source
ENAL METAR 2021/05/16 00:20 UTC NOAA

ENAL 160020Z AUTO 22003KT 8000 -RA ///023/// 10/10 Q0998


Station Type Date Time Source
ENAL Decoded METAR 2021/05/16 00:20 UTC NOAA

Alesund / Vigra, Norway (ENAL) 62-34N 006-07E 22M
May 15, 2021 - 08:20 PM EDT / 2021.05.16 0020 UTC
Wind: from the SW (220 degrees) at 3 MPH (3 KT):0
Visibility: 4 mile(s):0
Weather: light rain
Temperature: 50 F (10 C)
Dew Point: 50 F (10 C)
Relative Humidity: 100%
Pressure (altimeter): 29.47 in. Hg (0998 hPa)
ob: ENAL 160020Z AUTO 22003KT 8000 -RA ///023/// 10/10 Q0998
cycle: 0

Station Type Date Time Source
ENAL TAF UTC NOAA

Error!

Example: see airport list